Time;durP1;ratioP1;P1;durP2;ratioP2;P2;SDS_P1;SDS_P2;PMS_P1;PMS_P2;Temp;Humidity;BMP_temperature;BMP_pressure;BME280_temperature;BME280_humidity;BME280_pressure;Samples;Min_cycle;Max_cycle;Signal;HPM_P1;HPM_P2
2024/04/08 00:01:48;;;;;;;;;;;;;;;;;;6825783;26;20113;-59
2024/04/08 00:04:53;;;;;;;;;;;;;;;;;;6824978;26;19955;-59
2024/04/08 00:07:56;;;;;;;;;;;;;;;;;;6825819;26;19924;-59
2024/04/08 00:11:07;;;;;;;;;;;;;;;;;;6833675;26;19930;-60
2024/04/08 00:14:09;;;;;;;;;;;;;;;;;;6870235;26;19927;-61
2024/04/08 00:17:17;;;;;;;;;;;;;;;;;;6871235;26;20011;-60
2024/04/08 00:20:20;;;;;;;;;;;;;;;;;;6858078;26;19959;-58
2024/04/08 00:23:25;;;;;;;;;;;;;;;;;;6834560;26;19924;-59
2024/04/08 00:26:30;;;;;;;;;;;;;;;;;;6843879;26;20377;-59
2024/04/08 00:29:33;;;;;;;;;;;;;;;;;;6870295;25;19923;-59
2024/04/08 00:32:41;;;;;;;;;;;;;;;;;;6859950;25;20007;-59
2024/04/08 00:35:44;;;;;;;;;;;;;;;;;;6858628;25;19928;-59
2024/04/08 00:38:49;;;;;;;;;;;;;;;;;;6870889;25;19931;-60
2024/04/08 00:41:52;;;;;;;;;;;;;;;;;;6824176;26;19996;-59
2024/04/08 00:44:57;;;;;;;;;;;;;;;;;;6870904;26;19923;-59
2024/04/08 00:48:05;;;;;;;;;;;;;;;;;;6871198;26;19923;-59
2024/04/08 00:51:07;;;;;;;;;;;;;;;;;;6869657;26;19998;-58
2024/04/08 00:54:13;;;;;;;;;;;;;;;;;;6869561;25;19930;-61
2024/04/08 00:57:15;;;;;;;;;;;;;;;;;;6870330;26;19927;-60
2024/04/08 01:00:21;;;;;;;;;;;;;;;;;;6869129;26;20001;-60
2024/04/08 01:03:26;;;;;;;;;;;;;;;;;;6870223;26;19947;-60
2024/04/08 01:06:31;;;;;;;;;;;;;;;;;;6868543;26;19947;-61
2024/04/08 01:09:34;;;;;;;;;;;;;;;;;;6869525;26;19930;-61
2024/04/08 01:12:41;;;;;;;;;;;;;;;;;;6835720;26;20281;-60
2024/04/08 01:15:44;;;;;;;;;;;;;;;;;;6823748;26;19928;-60
2024/04/08 01:18:52;;;;;;;;;;;;;;;;;;6821203;26;19959;-60
2024/04/08 01:21:54;;;;;;;;;;;;;;;;;;6823700;26;19924;-60
2024/04/08 01:25:04;;;;;;;;;;;;;;;;;;6823284;26;19924;-60
2024/04/08 01:28:06;;;;;;;;;;;;;;;;;;6868263;26;19923;-60
2024/04/08 01:31:13;;;;;;;;;;;;;;;;;;6868570;26;19924;-60
2024/04/08 01:34:18;;;;;;;;;;;;;;;;;;6869191;26;19935;-60
2024/04/08 01:37:21;;;;;;;;;;;;;;;;;;6869530;26;20124;-60
2024/04/08 01:40:29;;;;;;;;;;;;;;;;;;6868574;26;19930;-60
2024/04/08 01:43:31;;;;;;;;;;;;;;;;;;6873618;26;19923;-60
2024/04/08 01:46:36;;;;;;;;;;;;;;;;;;6873304;26;19923;-60
2024/04/08 01:49:39;;;;;;;;;;;;;;;;;;6872335;26;19924;-60
2024/04/08 01:52:44;;;;;;;;;;;;;;;;;;6873694;26;19923;-60
2024/04/08 01:55:49;;;;;;;;;;;;;;;;;;6863477;25;19930;-61
2024/04/08 01:58:55;;;;;;;;;;;;;;;;;;6872979;26;20124;-60
2024/04/08 02:01:57;;;;;;;;;;;;;;;;;;6873599;26;19950;-59
2024/04/08 02:05:02;;;;;;;;;;;;;;;;;;6873311;26;19928;-59
2024/04/08 02:08:05;;;;;;;;;;;;;;;;;;6864147;26;19923;-59
2024/04/08 02:11:13;;;;;;;;;;;;;;;;;;6861788;26;20028;-60
2024/04/08 02:14:16;;;;;;;;;;;;;;;;;;6827033;26;19947;-60
2024/04/08 02:17:21;;;;;;;;;;;;;;;;;;6827756;26;19923;-60
2024/04/08 02:20:26;;;;;;;;;;;;;;;;;;6827154;26;19996;-60
2024/04/08 02:23:29;;;;;;;;;;;;;;;;;;6827699;26;19931;-60
2024/04/08 02:26:37;;;;;;;;;;;;;;;;;;6847286;26;20248;-60
2024/04/08 02:29:39;;;;;;;;;;;;;;;;;;6872664;26;19999;-60
2024/04/08 02:32:45;;;;;;;;;;;;;;;;;;6860783;26;20117;-60
2024/04/08 02:35:47;;;;;;;;;;;;;;;;;;6872730;26;19924;-60
2024/04/08 02:38:53;;;;;;;;;;;;;;;;;;6872064;26;20108;-60
2024/04/08 02:41:58;;;;;;;;;;;;;;;;;;6873604;26;20125;-60
2024/04/08 02:45:03;;;;;;;;;;;;;;;;;;6872040;26;19924;-60
2024/04/08 02:48:06;;;;;;;;;;;;;;;;;;6873123;26;19923;-60
2024/04/08 02:51:12;;;;;;;;;;;;;;;;;;6872206;26;19923;-60
2024/04/08 02:54:14;;;;;;;;;;;;;;;;;;6861579;25;19931;-60
2024/04/08 02:57:22;;;;;;;;;;;;;;;;;;6873148;26;20125;-60
2024/04/08 03:00:25;;;;;;;;;;;;;;;;;;6866199;26;20113;-60
2024/04/08 03:03:30;;;;;;;;;;;;;;;;;;6835924;26;19931;-61
2024/04/08 03:06:33;;;;;;;;;;;;;;;;;;6855800;26;19923;-60
2024/04/08 03:09:40;;;;;;;;;;;;;;;;;;6825940;26;19924;-60
2024/04/08 03:12:45;;;;;;;;;;;;;;;;;;6871547;26;19923;-61
2024/04/08 03:15:55;;;;;;;;;;;;;;;;;;6871919;26;19924;-60
2024/04/08 03:18:57;;;;;;;;;;;;;;;;;;6829449;26;19931;-60
2024/04/08 03:22:03;;;;;;;;;;;;;;;;;;6826818;26;20084;-60
2024/04/08 03:25:08;;;;;;;;;;;;;;;;;;6825724;26;19923;-59
2024/04/08 03:28:13;;;;;;;;;;;;;;;;;;6871153;26;19923;-59
2024/04/08 03:31:19;;;;;;;;;;;;;;;;;;6872292;26;19930;-61
2024/04/08 03:34:21;;;;;;;;;;;;;;;;;;6871876;26;19930;-59
2024/04/08 03:37:27;;;;;;;;;;;;;;;;;;6841262;26;19931;-59
2024/04/08 03:40:33;;;;;;;;;;;;;;;;;;6825411;26;20159;-59
2024/04/08 03:43:41;;;;;;;;;;;;;;;;;;6824955;26;20099;-60
2024/04/08 03:46:46;;;;;;;;;;;;;;;;;;6793594;26;19931;-61
2024/04/08 03:49:54;;;;;;;;;;;;;;;;;;6824111;26;19924;-60
2024/04/08 03:52:59;;;;;;;;;;;;;;;;;;6824930;26;19950;-60
2024/04/08 03:56:05;;;;;;;;;;;;;;;;;;6825315;26;19935;-60
2024/04/08 03:59:14;;;;;;;;;;;;;;;;;;6824690;26;19931;-60
2024/04/08 04:02:16;;;;;;;;;;;;;;;;;;6825564;26;20101;-60
2024/04/08 04:05:21;;;;;;;;;;;;;;;;;;6812386;26;20014;-60
2024/04/08 04:08:24;;;;;;;;;;;;;;;;;;6825249;26;19963;-61
2024/04/08 04:11:30;;;;;;;;;;;;;;;;;;6855322;26;19923;-61
2024/04/08 04:14:38;;;;;;;;;;;;;;;;;;6871132;26;19924;-61
2024/04/08 04:17:41;;;;;;;;;;;;;;;;;;6871383;26;20181;-59
2024/04/08 04:20:47;;;;;;;;;;;;;;;;;;6870881;26;19924;-60
2024/04/08 04:23:50;;;;;;;;;;;;;;;;;;6870685;26;20252;-60
2024/04/08 04:26:56;;;;;;;;;;;;;;;;;;6836336;26;19927;-60
2024/04/08 04:30:03;;;;;;;;;;;;;;;;;;6824407;26;19931;-60
2024/04/08 04:33:09;;;;;;;;;;;;;;;;;;6824130;26;19924;-59
2024/04/08 04:36:14;;;;;;;;;;;;;;;;;;6824933;26;19924;-61
2024/04/08 04:39:17;;;;;;;;;;;;;;;;;;6824313;26;19924;-61
2024/04/08 04:42:22;;;;;;;;;;;;;;;;;;6824825;26;20033;-61
2024/04/08 04:45:27;;;;;;;;;;;;;;;;;;6824892;26;19923;-61
2024/04/08 04:48:32;;;;;;;;;;;;;;;;;;6824370;26;20112;-61
2024/04/08 04:51:35;;;;;;;;;;;;;;;;;;6825233;26;20185;-61
2024/04/08 04:54:40;;;;;;;;;;;;;;;;;;6823736;26;19947;-61
2024/04/08 04:57:43;;;;;;;;;;;;;;;;;;6824342;26;19923;-60
2024/04/08 05:00:52;;;;;;;;;;;;;;;;;;6823134;26;20003;-61
2024/04/08 05:03:55;;;;;;;;;;;;;;;;;;6823180;26;19990;-60
2024/04/08 05:07:00;;;;;;;;;;;;;;;;;;6824328;26;19924;-60
2024/04/08 05:10:03;;;;;;;;;;;;;;;;;;6831856;26;19931;-59
2024/04/08 05:13:08;;;;;;;;;;;;;;;;;;6869489;26;19924;-59
2024/04/08 05:16:14;;;;;;;;;;;;;;;;;;6873125;26;20166;-60
2024/04/08 05:19:19;;;;;;;;;;;;;;;;;;6874576;26;19930;-59
2024/04/08 05:22:28;;;;;;;;;;;;;;;;;;6874585;26;20001;-62
2024/04/08 05:25:30;;;;;;;;;;;;;;;;;;6868807;26;19923;-59
2024/04/08 05:28:36;;;;;;;;;;;;;;;;;;6827061;26;19935;-59
2024/04/08 05:31:43;;;;;;;;;;;;;;;;;;6828047;26;20015;-59
2024/04/08 05:34:46;;;;;;;;;;;;;;;;;;6828064;26;19924;-59
2024/04/08 05:37:52;;;;;;;;;;;;;;;;;;6827808;26;20125;-59
2024/04/08 05:40:59;;;;;;;;;;;;;;;;;;6827499;26;19931;-61
2024/04/08 05:44:04;;;;;;;;;;;;;;;;;;6827432;26;19931;-61
2024/04/08 05:47:12;;;;;;;;;;;;;;;;;;6828714;26;19923;-61
2024/04/08 05:50:15;;;;;;;;;;;;;;;;;;6826930;26;20237;-59
2024/04/08 05:53:20;;;;;;;;;;;;;;;;;;6827022;26;19923;-59
2024/04/08 05:56:23;;;;;;;;;;;;;;;;;;6827314;26;19924;-59
2024/04/08 05:59:28;;;;;;;;;;;;;;;;;;6826789;26;19928;-59
2024/04/08 06:02:36;;;;;;;;;;;;;;;;;;6827490;26;19924;-61
2024/04/08 06:05:43;;;;;;;;;;;;;;;;;;6828041;26;19925;-60
2024/04/08 06:08:47;;;;;;;;;;;;;;;;;;6827854;26;19953;-59
2024/04/08 06:11:52;;;;;;;;;;;;;;;;;;6863799;26;19923;-59
2024/04/08 06:14:57;;;;;;;;;;;;;;;;;;6873655;26;19930;-60
2024/04/08 06:18:03;;;;;;;;;;;;;;;;;;6874000;26;19923;-59
2024/04/08 06:21:08;;;;;;;;;;;;;;;;;;6874691;26;19930;-60
2024/04/08 06:24:11;;;;;;;;;;;;;;;;;;6873678;26;19936;-60
2024/04/08 06:27:16;;;;;;;;;;;;;;;;;;6841772;26;19931;-60
2024/04/08 06:30:19;;;;;;;;;;;;;;;;;;6826344;26;19931;-60
2024/04/08 06:33:28;;;;;;;;;;;;;;;;;;6815663;26;19924;-60
2024/04/08 06:36:31;;;;;;;;;;;;;;;;;;6826128;26;19933;-59
2024/04/08 06:39:37;;;;;;;;;;;;;;;;;;6825841;26;19931;-59
2024/04/08 06:42:42;;;;;;;;;;;;;;;;;;6826599;26;19931;-59
2024/04/08 06:45:53;;;;;;;;;;;;;;;;;;6826473;26;19938;-60
2024/04/08 06:49:01;;;;;;;;;;;;;;;;;;6826017;26;19935;-59
2024/04/08 06:52:04;;;;;;;;;;;;;;;;;;6827253;26;20142;-59
2024/04/08 06:55:09;;;;;;;;;;;;;;;;;;6826450;26;20103;-61
2024/04/08 06:58:14;;;;;;;;;;;;;;;;;;6826362;26;19931;-61
2024/04/08 07:01:20;;;;;;;;;;;;;;;;;;6824886;26;19931;-59
2024/04/08 07:04:25;;;;;;;;;;;;;;;;;;6826013;26;19924;-59
2024/04/08 07:07:30;;;;;;;;;;;;;;;;;;6827299;26;20112;-59
2024/04/08 07:10:34;;;;;;;;;;;;;;;;;;6841924;26;19935;-59
2024/04/08 07:13:40;;;;;;;;;;;;;;;;;;6871775;26;20257;-60
2024/04/08 07:16:42;;;;;;;;;;;;;;;;;;6872967;26;20020;-60
2024/04/08 07:19:51;;;;;;;;;;;;;;;;;;6872745;26;19930;-60
2024/04/08 07:22:53;;;;;;;;;;;;;;;;;;6872969;26;19954;-60
2024/04/08 07:25:58;;;;;;;;;;;;;;;;;;6861615;26;19931;-60
2024/04/08 07:29:01;;;;;;;;;;;;;;;;;;6825483;26;20231;-61
2024/04/08 07:32:08;;;;;;;;;;;;;;;;;;6826500;26;20480;-60
2024/04/08 07:35:19;;;;;;;;;;;;;;;;;;6816172;26;19935;-61
2024/04/08 07:38:24;;;;;;;;;;;;;;;;;;6824661;26;19924;-59
2024/04/08 07:41:27;;;;;;;;;;;;;;;;;;6825987;26;19931;-60
2024/04/08 07:44:32;;;;;;;;;;;;;;;;;;6794193;26;20069;-60
2024/04/08 07:47:35;;;;;;;;;;;;;;;;;;6826105;26;19925;-60
2024/04/08 07:50:43;;;;;;;;;;;;;;;;;;6825738;26;19924;-59
2024/04/08 07:53:45;;;;;;;;;;;;;;;;;;6825427;26;19931;-60
2024/04/08 07:56:50;;;;;;;;;;;;;;;;;;6826568;26;20013;-60
2024/04/08 07:59:53;;;;;;;;;;;;;;;;;;6825821;26;19931;-60
2024/04/08 08:02:59;;;;;;;;;;;;;;;;;;6825073;26;19924;-61
2024/04/08 08:06:05;;;;;;;;;;;;;;;;;;6825904;26;19951;-59
2024/04/08 08:09:13;;;;;;;;;;;;;;;;;;6825223;26;19931;-59
2024/04/08 08:12:19;;;;;;;;;;;;;;;;;;6868103;26;20966;-60
2024/04/08 08:15:24;;;;;;;;;;;;;;;;;;6871037;26;20409;-60
2024/04/08 08:18:31;;;;;;;;;;;;;;;;;;6870600;26;20225;-65
2024/04/08 08:21:39;;;;;;;;;;;;;;;;;;6871751;26;19989;-60
2024/04/08 08:24:45;;;;;;;;;;;;;;;;;;6871110;26;19923;-59
2024/04/08 08:27:50;;;;;;;;;;;;;;;;;;6832031;26;20041;-60
2024/04/08 08:30:55;;;;;;;;;;;;;;;;;;6825052;26;19924;-59
2024/04/08 08:34:00;;;;;;;;;;;;;;;;;;6825210;26;20363;-61
2024/04/08 08:37:06;;;;;;;;;;;;;;;;;;6825348;26;19931;-59
2024/04/08 08:40:11;;;;;;;;;;;;;;;;;;6792424;26;19924;-59
2024/04/08 08:43:14;;;;;;;;;;;;;;;;;;6824366;26;20125;-59
2024/04/08 08:46:22;;;;;;;;;;;;;;;;;;6825656;26;20117;-59
2024/04/08 08:49:24;;;;;;;;;;;;;;;;;;6824182;26;20011;-59
2024/04/08 08:52:32;;;;;;;;;;;;;;;;;;6825510;26;19924;-61
2024/04/08 08:55:35;;;;;;;;;;;;;;;;;;6831343;26;19931;-60
2024/04/08 08:58:40;;;;;;;;;;;;;;;;;;6824223;25;19924;-60
2024/04/08 09:01:46;;;;;;;;;;;;;;;;;;6824987;26;19924;-60
2024/04/08 09:04:49;;;;;;;;;;;;;;;;;;6824801;26;19924;-60
2024/04/08 09:07:56;;;;;;;;;;;;;;;;;;6824924;25;20019;-59
2024/04/08 09:11:07;;;;;;;;;;;;;;;;;;6846969;26;20008;-58
2024/04/08 09:14:10;;;;;;;;;;;;;;;;;;6837385;26;19923;-60
2024/04/08 09:17:15;;;;;;;;;;;;;;;;;;6867693;26;19930;-59
2024/04/08 09:20:20;;;;;;;;;;;;;;;;;;6869755;26;19923;-59
2024/04/08 09:23:32;;;;;;;;;;;;;;;;;;6869615;26;19951;-60
2024/04/08 09:26:35;;;;;;;;;;;;;;;;;;6849442;26;20144;-60
2024/04/08 09:29:40;;;;;;;;;;;;;;;;;;6822092;25;20147;-61
2024/04/08 09:32:43;;;;;;;;;;;;;;;;;;6824813;26;20009;-59
2024/04/08 09:35:48;;;;;;;;;;;;;;;;;;6824056;26;20070;-59
2024/04/08 09:38:54;;;;;;;;;;;;;;;;;;6824636;26;20073;-61
2024/04/08 09:41:59;;;;;;;;;;;;;;;;;;6825250;26;19924;-62
2024/04/08 09:45:03;;;;;;;;;;;;;;;;;;6824219;26;19931;-61
2024/04/08 09:48:09;;;;;;;;;;;;;;;;;;6791930;26;19931;-61
2024/04/08 09:51:13;;;;;;;;;;;;;;;;;;6823989;26;19924;-59
2024/04/08 09:54:22;;;;;;;;;;;;;;;;;;6823646;25;19958;-62
2024/04/08 09:57:27;;;;;;;;;;;;;;;;;;6824016;26;19924;-60
2024/04/08 10:00:33;;;;;;;;;;;;;;;;;;6821529;26;19936;-60
2024/04/08 10:03:38;;;;;;;;;;;;;;;;;;6815673;26;20015;-60
2024/04/08 10:06:43;;;;;;;;;;;;;;;;;;6827970;26;19924;-59
2024/04/08 10:09:48;;;;;;;;;;;;;;;;;;6832462;26;19924;-59
2024/04/08 10:12:54;;;;;;;;;;;;;;;;;;6873819;26;19943;-61
2024/04/08 10:16:05;;;;;;;;;;;;;;;;;;6868702;26;19927;-59
2024/04/08 10:19:11;;;;;;;;;;;;;;;;;;6873526;26;19923;-59
2024/04/08 10:22:18;;;;;;;;;;;;;;;;;;6874266;26;19976;-60
2024/04/08 10:25:36;;;;;;;;;;;;;;;;;;6871750;26;20334;-59
2024/04/08 10:28:42;;;;;;;;;;;;;;;;;;6826788;26;19923;-59
2024/04/08 10:31:44;;;;;;;;;;;;;;;;;;6827978;26;19924;-60
2024/04/08 10:34:50;;;;;;;;;;;;;;;;;;6826983;26;19924;-60
2024/04/08 10:37:53;;;;;;;;;;;;;;;;;;6825830;26;20254;-60
2024/04/08 10:41:01;;;;;;;;;;;;;;;;;;6828662;26;19928;-59
2024/04/08 10:44:03;;;;;;;;;;;;;;;;;;6827293;26;20014;-60
2024/04/08 10:47:09;;;;;;;;;;;;;;;;;;6827426;26;19931;-60
2024/04/08 10:50:11;;;;;;;;;;;;;;;;;;6826822;26;20016;-62
2024/04/08 10:53:17;;;;;;;;;;;;;;;;;;6826842;26;20284;-59
2024/04/08 10:56:23;;;;;;;;;;;;;;;;;;6825262;26;19936;-59
2024/04/08 10:59:28;;;;;;;;;;;;;;;;;;6827548;26;20105;-60
2024/04/08 11:02:32;;;;;;;;;;;;;;;;;;6827331;26;20012;-60
2024/04/08 11:05:37;;;;;;;;;;;;;;;;;;6827321;26;19935;-60
2024/04/08 11:08:40;;;;;;;;;;;;;;;;;;6756926;26;19931;-60
2024/04/08 11:11:47;;;;;;;;;;;;;;;;;;6852032;26;19927;-59
2024/04/08 11:14:50;;;;;;;;;;;;;;;;;;6871207;26;20083;-60
2024/04/08 11:17:57;;;;;;;;;;;;;;;;;;6873137;26;20018;-60
2024/04/08 11:21:01;;;;;;;;;;;;;;;;;;6872947;26;19923;-60
2024/04/08 11:24:06;;;;;;;;;;;;;;;;;;6872167;26;20029;-60
2024/04/08 11:27:12;;;;;;;;;;;;;;;;;;6843272;26;19924;-60
2024/04/08 11:30:17;;;;;;;;;;;;;;;;;;6826583;26;19924;-60
2024/04/08 11:33:20;;;;;;;;;;;;;;;;;;6825861;26;20129;-59
2024/04/08 11:36:26;;;;;;;;;;;;;;;;;;6795711;26;20024;-60
2024/04/08 11:39:31;;;;;;;;;;;;;;;;;;6826245;26;19924;-60
2024/04/08 11:42:36;;;;;;;;;;;;;;;;;;6827376;26;19931;-59
2024/04/08 11:45:42;;;;;;;;;;;;;;;;;;6826183;26;19923;-59
2024/04/08 11:48:47;;;;;;;;;;;;;;;;;;6825765;26;19924;-59
2024/04/08 11:51:50;;;;;;;;;;;;;;;;;;6796182;26;19924;-60
2024/04/08 11:54:55;;;;;;;;;;;;;;;;;;6794742;26;19944;-59
2024/04/08 11:58:07;;;;;;;;;;;;;;;;;;6823559;25;19931;-60
2024/04/08 12:01:12;;;;;;;;;;;;;;;;;;6844839;26;20060;-59
2024/04/08 12:04:18;;;;;;;;;;;;;;;;;;6825753;26;19924;-60
2024/04/08 12:07:21;;;;;;;;;;;;;;;;;;6826539;26;19931;-60
2024/04/08 12:10:26;;;;;;;;;;;;;;;;;;6839818;26;19930;-59
2024/04/08 12:13:31;;;;;;;;;;;;;;;;;;6825906;26;20147;-59
2024/04/08 12:16:37;;;;;;;;;;;;;;;;;;6839983;26;19924;-59
2024/04/08 12:19:42;;;;;;;;;;;;;;;;;;6871619;26;19930;-60
2024/04/08 12:22:50;;;;;;;;;;;;;;;;;;6834715;26;19999;-59
2024/04/08 12:25:52;;;;;;;;;;;;;;;;;;6833628;26;20006;-59
2024/04/08 12:29:00;;;;;;;;;;;;;;;;;;6862452;26;19930;-59
2024/04/08 12:32:03;;;;;;;;;;;;;;;;;;6871286;26;19946;-59
2024/04/08 12:35:08;;;;;;;;;;;;;;;;;;6871070;26;19923;-59
2024/04/08 12:38:14;;;;;;;;;;;;;;;;;;6870948;26;19940;-59
2024/04/08 12:41:17;;;;;;;;;;;;;;;;;;6871182;26;20059;-60
2024/04/08 12:44:25;;;;;;;;;;;;;;;;;;6870163;26;19923;-59
2024/04/08 12:47:28;;;;;;;;;;;;;;;;;;6865680;26;20009;-60
2024/04/08 12:50:35;;;;;;;;;;;;;;;;;;6870976;26;19930;-59
2024/04/08 12:53:38;;;;;;;;;;;;;;;;;;6869122;26;19937;-59
2024/04/08 12:56:43;;;;;;;;;;;;;;;;;;6871516;26;20199;-59
2024/04/08 12:59:51;;;;;;;;;;;;;;;;;;6871791;26;19923;-59
2024/04/08 13:02:54;;;;;;;;;;;;;;;;;;6844344;26;20129;-60
2024/04/08 13:05:59;;;;;;;;;;;;;;;;;;6856008;26;19930;-59
2024/04/08 13:09:05;;;;;;;;;;;;;;;;;;6868160;26;20011;-59
2024/04/08 13:12:07;;;;;;;;;;;;;;;;;;6830758;26;19924;-59
2024/04/08 13:15:15;;;;;;;;;;;;;;;;;;6824346;26;19923;-59
2024/04/08 13:18:18;;;;;;;;;;;;;;;;;;6824643;26;19924;-59
2024/04/08 13:21:26;;;;;;;;;;;;;;;;;;6824905;26;19923;-59
2024/04/08 13:24:30;;;;;;;;;;;;;;;;;;6823117;26;19924;-60
2024/04/08 13:27:35;;;;;;;;;;;;;;;;;;6859646;26;19930;-60
2024/04/08 13:30:41;;;;;;;;;;;;;;;;;;6870309;26;20117;-60
2024/04/08 13:33:46;;;;;;;;;;;;;;;;;;6837561;26;19954;-60
2024/04/08 13:36:49;;;;;;;;;;;;;;;;;;6830508;26;20136;-60
2024/04/08 13:39:55;;;;;;;;;;;;;;;;;;6874801;26;19930;-59
2024/04/08 13:42:57;;;;;;;;;;;;;;;;;;6874501;26;19935;-60
2024/04/08 13:46:05;;;;;;;;;;;;;;;;;;6874808;26;19930;-60
2024/04/08 13:49:11;;;;;;;;;;;;;;;;;;6874051;26;19924;-59
2024/04/08 13:52:13;;;;;;;;;;;;;;;;;;6874367;26;20023;-60
2024/04/08 13:55:19;;;;;;;;;;;;;;;;;;6873440;26;19930;-61
2024/04/08 13:58:21;;;;;;;;;;;;;;;;;;6872636;26;19930;-59
2024/04/08 14:01:29;;;;;;;;;;;;;;;;;;6872745;26;19931;-59
2024/04/08 14:04:35;;;;;;;;;;;;;;;;;;6874196;26;19923;-61
2024/04/08 14:07:38;;;;;;;;;;;;;;;;;;6875385;26;20171;-61
2024/04/08 14:10:43;;;;;;;;;;;;;;;;;;6856344;26;19931;-61
2024/04/08 14:13:48;;;;;;;;;;;;;;;;;;6828570;26;20662;-61
2024/04/08 14:16:54;;;;;;;;;;;;;;;;;;6858106;26;19924;-61
2024/04/08 14:19:59;;;;;;;;;;;;;;;;;;6827727;26;19931;-61
2024/04/08 14:23:02;;;;;;;;;;;;;;;;;;6828048;26;19931;-60
2024/04/08 14:26:07;;;;;;;;;;;;;;;;;;6841615;26;20126;-61
2024/04/08 14:29:10;;;;;;;;;;;;;;;;;;6872244;26;19924;-59
2024/04/08 14:32:19;;;;;;;;;;;;;;;;;;6873978;26;20183;-59
2024/04/08 14:35:25;;;;;;;;;;;;;;;;;;6873414;26;19927;-59
2024/04/08 14:38:28;;;;;;;;;;;;;;;;;;6874114;26;20130;-61
2024/04/08 14:41:53;;;;;;;;;;;;;;;;;;6874710;26;19924;-61
2024/04/08 14:44:58;;;;;;;;;;;;;;;;;;6874059;26;19930;-60
2024/04/08 14:48:09;;;;;;;;;;;;;;;;;;6872975;26;20162;-61
2024/04/08 14:51:14;;;;;;;;;;;;;;;;;;6873268;26;19923;-59
2024/04/08 14:54:18;;;;;;;;;;;;;;;;;;6872978;26;19923;-61
2024/04/08 14:57:23;;;;;;;;;;;;;;;;;;6871177;26;19924;-60
2024/04/08 15:00:26;;;;;;;;;;;;;;;;;;6862589;26;20109;-60
2024/04/08 15:03:35;;;;;;;;;;;;;;;;;;6872683;26;20117;-60
2024/04/08 15:06:40;;;;;;;;;;;;;;;;;;6871411;26;19988;-60
2024/04/08 15:09:42;;;;;;;;;;;;;;;;;;6870354;26;19923;-59
2024/04/08 15:12:48;;;;;;;;;;;;;;;;;;6827850;25;20155;-60
2024/04/08 15:15:54;;;;;;;;;;;;;;;;;;6827287;26;19998;-59
2024/04/08 15:19:02;;;;;;;;;;;;;;;;;;6826878;25;19924;-62
2024/04/08 15:22:04;;;;;;;;;;;;;;;;;;6828438;26;19928;-60
2024/04/08 15:25:10;;;;;;;;;;;;;;;;;;6824677;26;20152;-61
2024/04/08 15:28:15;;;;;;;;;;;;;;;;;;6827282;26;19931;-61
2024/04/08 15:31:18;;;;;;;;;;;;;;;;;;6827598;26;19931;-61
2024/04/08 15:34:26;;;;;;;;;;;;;;;;;;6827357;26;19931;-62
2024/04/08 15:37:29;;;;;;;;;;;;;;;;;;6827228;25;19923;-59
2024/04/08 15:40:35;;;;;;;;;;;;;;;;;;6824483;25;20294;-62
2024/04/08 15:43:41;;;;;;;;;;;;;;;;;;6826357;25;20185;-60
2024/04/08 15:46:43;;;;;;;;;;;;;;;;;;6827429;26;19931;-59
2024/04/08 15:49:51;;;;;;;;;;;;;;;;;;6826166;26;19924;-59
2024/04/08 15:52:54;;;;;;;;;;;;;;;;;;6826750;25;20086;-60
2024/04/08 15:56:00;;;;;;;;;;;;;;;;;;6827310;26;19935;-60
2024/04/08 15:59:02;;;;;;;;;;;;;;;;;;6824021;26;19931;-60
2024/04/08 16:02:07;;;;;;;;;;;;;;;;;;6826879;26;19924;-59
2024/04/08 16:05:15;;;;;;;;;;;;;;;;;;6825705;26;19923;-59
2024/04/08 16:08:18;;;;;;;;;;;;;;;;;;6822072;26;20212;-60
2024/04/08 16:11:24;;;;;;;;;;;;;;;;;;6844476;26;20321;-60
2024/04/08 16:14:29;;;;;;;;;;;;;;;;;;6873012;26;19958;-60
2024/04/08 16:17:32;;;;;;;;;;;;;;;;;;6872758;26;19924;-60
2024/04/08 16:20:40;;;;;;;;;;;;;;;;;;6872379;26;19952;-60
2024/04/08 16:23:46;;;;;;;;;;;;;;;;;;6870611;26;19931;-61
2024/04/08 16:26:57;;;;;;;;;;;;;;;;;;6809326;26;19924;-60
2024/04/08 16:30:03;;;;;;;;;;;;;;;;;;6824446;26;19931;-59
2024/04/08 16:33:09;;;;;;;;;;;;;;;;;;6825134;26;19935;-59
2024/04/08 16:36:15;;;;;;;;;;;;;;;;;;6795338;26;19924;-61
2024/04/08 16:39:20;;;;;;;;;;;;;;;;;;6783885;26;19924;-60
2024/04/08 16:42:26;;;;;;;;;;;;;;;;;;6826040;26;19931;-59
2024/04/08 16:45:28;;;;;;;;;;;;;;;;;;6825582;26;19924;-59
2024/04/08 16:48:34;;;;;;;;;;;;;;;;;;6816373;26;19924;-61
2024/04/08 16:51:42;;;;;;;;;;;;;;;;;;6825839;26;19927;-59
2024/04/08 16:54:44;;;;;;;;;;;;;;;;;;6824817;26;19924;-60
2024/04/08 16:57:50;;;;;;;;;;;;;;;;;;6825678;26;19953;-59
2024/04/08 17:00:55;;;;;;;;;;;;;;;;;;6779593;26;19936;-60
2024/04/08 17:03:58;;;;;;;;;;;;;;;;;;6779461;26;19925;-60
2024/04/08 17:07:06;;;;;;;;;;;;;;;;;;6809604;26;19928;-59
2024/04/08 17:10:12;;;;;;;;;;;;;;;;;;6835672;26;19923;-60
2024/04/08 17:13:14;;;;;;;;;;;;;;;;;;6875020;26;20104;-61
2024/04/08 17:16:20;;;;;;;;;;;;;;;;;;6874668;26;19930;-61
2024/04/08 17:19:23;;;;;;;;;;;;;;;;;;6875226;26;20106;-60
2024/04/08 17:22:31;;;;;;;;;;;;;;;;;;6873824;26;19923;-59
2024/04/08 17:25:34;;;;;;;;;;;;;;;;;;6869035;26;19936;-61
2024/04/08 17:28:39;;;;;;;;;;;;;;;;;;6828840;26;19931;-61
2024/04/08 17:31:44;;;;;;;;;;;;;;;;;;6798448;26;19997;-60
2024/04/08 17:34:49;;;;;;;;;;;;;;;;;;6799009;26;20041;-60
2024/04/08 17:37:57;;;;;;;;;;;;;;;;;;6832335;26;19924;-61
2024/04/08 17:41:01;;;;;;;;;;;;;;;;;;6828720;26;19931;-60
2024/04/08 17:44:06;;;;;;;;;;;;;;;;;;6829360;26;19931;-61
2024/04/08 17:47:09;;;;;;;;;;;;;;;;;;6829895;26;19924;-60
2024/04/08 17:50:15;;;;;;;;;;;;;;;;;;6828262;26;19924;-62
2024/04/08 17:53:21;;;;;;;;;;;;;;;;;;6826195;26;20003;-60
2024/04/08 17:56:26;;;;;;;;;;;;;;;;;;6827831;26;19955;-61
2024/04/08 17:59:31;;;;;;;;;;;;;;;;;;6827414;26;19932;-60
2024/04/08 18:02:36;;;;;;;;;;;;;;;;;;6827989;26;19924;-61
2024/04/08 18:05:40;;;;;;;;;;;;;;;;;;6826111;26;19924;-60
2024/04/08 18:08:48;;;;;;;;;;;;;;;;;;6828810;26;19931;-60
2024/04/08 18:11:51;;;;;;;;;;;;;;;;;;6864905;26;19923;-61
2024/04/08 18:15:04;;;;;;;;;;;;;;;;;;6873661;26;20021;-60
2024/04/08 18:18:07;;;;;;;;;;;;;;;;;;6873932;26;19923;-61
2024/04/08 18:21:14;;;;;;;;;;;;;;;;;;6875029;26;19931;-61
2024/04/08 18:24:19;;;;;;;;;;;;;;;;;;6872878;26;19923;-59
2024/04/08 18:27:25;;;;;;;;;;;;;;;;;;6841065;26;19924;-59
2024/04/08 18:30:28;;;;;;;;;;;;;;;;;;6826841;26;19933;-62
2024/04/08 18:33:34;;;;;;;;;;;;;;;;;;6827427;26;19924;-60
2024/04/08 18:36:37;;;;;;;;;;;;;;;;;;6827955;26;20183;-60
2024/04/08 18:39:45;;;;;;;;;;;;;;;;;;6827581;26;19924;-61
2024/04/08 18:42:50;;;;;;;;;;;;;;;;;;6828255;26;19950;-61
2024/04/08 18:45:53;;;;;;;;;;;;;;;;;;6857251;26;19931;-61
2024/04/08 18:48:59;;;;;;;;;;;;;;;;;;6827800;26;19931;-60
2024/04/08 18:52:05;;;;;;;;;;;;;;;;;;6828417;26;19961;-61
2024/04/08 18:55:10;;;;;;;;;;;;;;;;;;6835657;26;20021;-61
2024/04/08 18:58:16;;;;;;;;;;;;;;;;;;6782239;26;20122;-61
2024/04/08 19:01:23;;;;;;;;;;;;;;;;;;6782299;26;19928;-63
2024/04/08 19:04:26;;;;;;;;;;;;;;;;;;6781701;26;20010;-60
2024/04/08 19:07:32;;;;;;;;;;;;;;;;;;6782450;26;20285;-60
2024/04/08 19:10:40;;;;;;;;;;;;;;;;;;6797600;26;19931;-61
2024/04/08 19:13:43;;;;;;;;;;;;;;;;;;6795743;26;20013;-62
2024/04/08 19:16:52;;;;;;;;;;;;;;;;;;6827262;26;20184;-61
2024/04/08 19:19:56;;;;;;;;;;;;;;;;;;6827178;26;19924;-60
2024/04/08 19:23:01;;;;;;;;;;;;;;;;;;6826208;26;20245;-61
2024/04/08 19:26:06;;;;;;;;;;;;;;;;;;6814936;26;19924;-60
2024/04/08 19:29:12;;;;;;;;;;;;;;;;;;6780884;26;19925;-60
2024/04/08 19:32:14;;;;;;;;;;;;;;;;;;6781468;26;20239;-61
2024/04/08 19:35:20;;;;;;;;;;;;;;;;;;6781378;26;19954;-61
2024/04/08 19:38:22;;;;;;;;;;;;;;;;;;6780797;26;19924;-61
2024/04/08 19:41:31;;;;;;;;;;;;;;;;;;6750831;26;19924;-61
2024/04/08 19:44:33;;;;;;;;;;;;;;;;;;6780988;26;19924;-61
2024/04/08 19:47:42;;;;;;;;;;;;;;;;;;6780995;26;19925;-61
2024/04/08 19:50:48;;;;;;;;;;;;;;;;;;6782278;26;19924;-61
2024/04/08 19:53:55;;;;;;;;;;;;;;;;;;6783353;26;19985;-60
2024/04/08 19:57:00;;;;;;;;;;;;;;;;;;6826486;26;20128;-61
2024/04/08 20:00:08;;;;;;;;;;;;;;;;;;6825804;26;20165;-60
2024/04/08 20:03:14;;;;;;;;;;;;;;;;;;6825122;26;19931;-60
2024/04/08 20:06:19;;;;;;;;;;;;;;;;;;6825489;26;20272;-60
2024/04/08 20:09:22;;;;;;;;;;;;;;;;;;6825479;26;20004;-60
2024/04/08 20:12:30;;;;;;;;;;;;;;;;;;6870660;26;20062;-61
2024/04/08 20:15:32;;;;;;;;;;;;;;;;;;6828345;26;20024;-62
2024/04/08 20:18:38;;;;;;;;;;;;;;;;;;6872023;26;19947;-61
2024/04/08 20:21:42;;;;;;;;;;;;;;;;;;6872123;26;20214;-60
2024/04/08 20:24:50;;;;;;;;;;;;;;;;;;6871861;26;19923;-62
2024/04/08 20:27:55;;;;;;;;;;;;;;;;;;6830653;25;19931;-60
2024/04/08 20:31:01;;;;;;;;;;;;;;;;;;6825891;25;20002;-60
2024/04/08 20:34:04;;;;;;;;;;;;;;;;;;6826199;25;19947;-61
2024/04/08 20:37:11;;;;;;;;;;;;;;;;;;6826790;26;19924;-63
2024/04/08 20:40:16;;;;;;;;;;;;;;;;;;6827950;26;19931;-60
2024/04/08 20:43:22;;;;;;;;;;;;;;;;;;6827719;26;19923;-60
2024/04/08 20:46:28;;;;;;;;;;;;;;;;;;6827477;26;19931;-60
2024/04/08 20:49:31;;;;;;;;;;;;;;;;;;6828147;26;19923;-61
2024/04/08 20:52:36;;;;;;;;;;;;;;;;;;6828443;26;19924;-61
2024/04/08 20:55:39;;;;;;;;;;;;;;;;;;6827448;26;20009;-61
2024/04/08 20:58:49;;;;;;;;;;;;;;;;;;6826272;26;20219;-61
2024/04/08 21:01:52;;;;;;;;;;;;;;;;;;6828057;25;19930;-61
2024/04/08 21:04:57;;;;;;;;;;;;;;;;;;6795915;26;20012;-60